createdAt,value
2024-02-03T00:03:28.635Z,11.27
2024-02-03T00:08:36.887Z,13.13
2024-02-03T00:13:42.732Z,14.47
2024-02-03T00:18:48.399Z,12.23
2024-02-03T00:23:58.732Z,10.07
2024-02-03T00:29:06.264Z,9.40
2024-02-03T00:34:13.402Z,12.70
2024-02-03T00:39:21.535Z,15.83
2024-02-03T00:44:26.710Z,13.57
2024-02-03T00:49:32.626Z,13.43
2024-02-03T00:54:40.816Z,11.60
2024-02-03T00:59:46.762Z,11.67
2024-02-03T01:04:52.175Z,11.23
2024-02-03T01:10:02.142Z,11.57
2024-02-03T01:15:08.391Z,14.23
2024-02-03T01:20:15.540Z,12.90
2024-02-03T01:25:23.666Z,12.40
2024-02-03T01:30:29.137Z,11.63
2024-02-03T01:35:35.501Z,9.67
2024-02-03T01:40:44.271Z,12.00
2024-02-03T01:45:49.668Z,10.77
2024-02-03T01:50:57.914Z,13.07
2024-02-03T01:56:07.464Z,15.00
2024-02-03T02:01:14.665Z,11.53
2024-02-03T02:06:20.077Z,12.10
2024-02-03T02:11:30.327Z,10.57
2024-02-03T02:16:35.904Z,10.77
2024-02-03T02:21:49.923Z,10.93
2024-02-03T02:26:57.286Z,11.80
2024-02-03T02:32:02.681Z,10.80
2024-02-03T02:37:10.696Z,11.27
2024-02-03T02:42:16.109Z,11.10
2024-02-03T02:47:21.516Z,10.83
2024-02-03T02:52:30.716Z,11.57
2024-02-03T02:57:36.328Z,11.90
2024-02-03T03:02:41.877Z,9.47
2024-02-03T03:07:49.929Z,9.10
2024-02-03T03:12:55.730Z,9.87
2024-02-03T03:18:03.750Z,8.80
2024-02-03T03:23:11.850Z,10.57
2024-02-03T03:28:17.349Z,9.83
2024-02-03T03:33:22.900Z,8.70
2024-02-03T03:38:31.318Z,7.53
2024-02-03T03:43:40.994Z,9.83
2024-02-03T03:48:46.340Z,9.43
2024-02-03T03:53:54.399Z,7.63
2024-02-03T03:59:00.738Z,8.03
2024-02-03T04:04:06.092Z,7.67
2024-02-03T04:09:14.155Z,7.07
2024-02-03T04:14:19.488Z,8.03
2024-02-03T04:19:27.872Z,6.87
2024-02-03T04:24:35.955Z,7.33
2024-02-03T04:29:41.123Z,8.97
2024-02-03T04:34:46.510Z,7.20
2024-02-03T04:39:54.610Z,6.23
2024-02-03T04:44:59.946Z,7.10
2024-02-03T04:50:05.789Z,7.83
2024-02-03T04:55:13.774Z,6.87
2024-02-03T05:00:21.635Z,7.13
2024-02-03T05:05:28.793Z,7.67
2024-02-03T05:10:36.509Z,6.90
2024-02-03T05:15:41.663Z,7.33
2024-02-03T05:20:47.080Z,6.23
2024-02-03T05:25:54.793Z,6.43
2024-02-03T05:31:00.078Z,6.77
2024-02-03T05:36:05.188Z,5.70
2024-02-03T05:41:13.917Z,6.13
2024-02-03T05:46:18.984Z,5.43
2024-02-03T05:51:24.142Z,6.63
2024-02-03T05:56:32.948Z,5.17
2024-02-03T06:01:38.161Z,5.50
2024-02-03T06:06:43.698Z,6.13
2024-02-03T06:11:52.169Z,10.40
2024-02-03T06:16:57.500Z,7.07
2024-02-03T06:22:03.207Z,6.53
2024-02-03T06:27:11.468Z,7.57
2024-02-03T06:32:16.859Z,7.43
2024-02-03T06:37:22.255Z,8.00
2024-02-03T06:42:30.211Z,5.23
2024-02-03T06:47:35.618Z,6.23
2024-02-03T06:52:40.983Z,8.20
2024-02-03T06:57:48.957Z,6.77
2024-02-03T07:02:54.476Z,4.23
2024-02-03T07:08:03.959Z,7.30
2024-02-03T07:13:15.049Z,6.93
2024-02-03T07:18:22.300Z,5.30
2024-02-03T07:23:27.773Z,9.30
2024-02-03T07:28:35.612Z,4.80
2024-02-03T07:33:40.922Z,7.77
2024-02-03T07:38:48.166Z,5.63
2024-02-03T07:43:56.570Z,9.43
2024-02-03T07:49:02.236Z,5.27
2024-02-03T07:54:07.996Z,4.57
2024-02-03T07:59:16.181Z,4.43
2024-02-03T08:04:21.381Z,4.03
2024-02-03T08:09:28.737Z,8.17
2024-02-03T08:14:39.874Z,4.57
2024-02-03T08:19:45.598Z,5.13
2024-02-03T08:24:51.092Z,3.13
2024-02-03T08:30:00.594Z,2.97
2024-02-03T08:40:22.945Z,4.60
2024-02-03T08:45:30.970Z,3.90
2024-02-03T08:50:36.298Z,3.33
2024-02-03T08:55:41.653Z,6.33
2024-02-03T09:00:51.688Z,2.73
2024-02-03T09:06:02.145Z,3.23
2024-02-03T09:11:10.963Z,5.77
2024-02-03T09:16:18.836Z,3.97
2024-02-03T09:21:26.477Z,2.30
2024-02-03T09:26:31.847Z,3.83
2024-02-03T09:31:39.935Z,5.30
2024-02-03T09:41:56.570Z,6.47
2024-02-03T09:47:07.776Z,4.80
2024-02-03T09:52:16.512Z,2.20
2024-02-03T09:57:22.447Z,2.83
2024-02-03T10:02:33.920Z,2.40
2024-02-03T10:07:39.765Z,2.77
2024-02-03T10:12:45.133Z,1.70
2024-02-03T10:18:00.196Z,2.37
2024-02-03T10:23:05.949Z,2.03
2024-02-03T10:28:12.473Z,2.83
2024-02-03T10:33:22.629Z,2.20
2024-02-03T10:38:28.050Z,2.80
2024-02-03T10:43:41.502Z,1.73
2024-02-03T10:48:51.519Z,1.63
2024-02-03T10:54:02.247Z,1.50
2024-02-03T10:59:08.108Z,2.43
2024-02-03T11:04:18.471Z,3.67
2024-02-03T11:09:29.953Z,1.67
2024-02-03T11:14:37.355Z,2.00
2024-02-03T11:19:48.350Z,3.50
2024-02-03T11:24:53.906Z,1.50
2024-02-03T11:30:08.102Z,1.97
2024-02-03T11:35:19.657Z,3.83
2024-02-03T11:40:25.289Z,2.97
2024-02-03T11:45:35.395Z,1.33
2024-02-03T11:50:46.504Z,1.60
2024-02-03T11:55:53.234Z,1.27
2024-02-03T12:01:08.417Z,1.43
2024-02-03T12:06:17.758Z,1.53
2024-02-03T12:11:23.421Z,1.93
2024-02-03T12:16:28.608Z,1.10
2024-02-03T12:21:41.688Z,1.00
2024-02-03T12:26:47.219Z,1.30
2024-02-03T12:31:52.613Z,1.23
2024-02-03T12:37:00.644Z,2.90
2024-02-03T12:42:05.950Z,2.00
2024-02-03T12:47:11.711Z,0.80
2024-02-03T12:52:21.557Z,1.00
2024-02-03T12:57:27.061Z,1.07
2024-02-03T13:02:32.189Z,1.57
2024-02-03T13:07:41.293Z,0.80
2024-02-03T13:12:46.450Z,0.90
2024-02-03T13:17:51.688Z,2.33
2024-02-03T13:23:01.624Z,0.70
2024-02-03T13:28:07.840Z,0.80
2024-02-03T13:33:14.658Z,1.30
2024-02-03T13:38:22.636Z,2.00
2024-02-03T13:43:27.935Z,1.00
2024-02-03T13:48:33.354Z,1.37
2024-02-03T13:53:42.562Z,1.07
2024-02-03T13:58:48.646Z,1.20
2024-02-03T14:03:53.778Z,0.70
2024-02-03T14:09:02.070Z,1.03
2024-02-03T14:14:07.180Z,0.73
2024-02-03T14:19:12.561Z,2.83
2024-02-03T14:24:20.520Z,0.93
2024-02-03T14:29:25.862Z,0.90
2024-02-03T14:34:34.255Z,1.57
2024-02-03T14:39:42.515Z,2.10
2024-02-03T14:44:48.083Z,0.73
2024-02-03T14:49:53.576Z,1.80
2024-02-03T14:55:01.472Z,1.13
2024-02-03T15:00:07.325Z,3.00
2024-02-03T15:05:13.007Z,2.83
2024-02-03T15:10:20.985Z,1.13
2024-02-03T15:15:26.682Z,1.53
2024-02-03T15:20:32.020Z,0.80
2024-02-03T15:25:39.773Z,1.40
2024-02-03T15:30:45.061Z,2.23
2024-02-03T15:35:50.291Z,1.27
2024-02-03T15:40:59.574Z,1.17
2024-02-03T15:46:10.325Z,1.03
2024-02-03T15:51:18.205Z,2.20
2024-02-03T15:56:28.071Z,1.57
2024-02-03T16:01:41.519Z,2.17
2024-02-03T16:06:50.875Z,1.23
2024-02-03T16:11:59.579Z,1.30
2024-02-03T16:17:07.924Z,1.60
2024-02-03T16:22:13.476Z,2.17
2024-02-03T16:27:24.329Z,1.63
2024-02-03T16:32:32.180Z,1.40
2024-02-03T16:37:38.220Z,1.57
2024-02-03T16:42:48.465Z,2.03
2024-02-03T16:47:53.976Z,1.60
2024-02-03T16:53:04.069Z,2.23
2024-02-03T16:58:12.689Z,1.57
2024-02-03T17:03:18.361Z,1.40
2024-02-03T17:08:23.789Z,1.60
2024-02-03T17:13:31.781Z,1.63
2024-02-03T17:18:39.957Z,1.50
2024-02-03T17:23:45.390Z,1.30
2024-02-03T17:28:55.846Z,1.57
2024-02-03T17:34:04.787Z,1.57
2024-02-03T17:39:12.713Z,2.00
2024-02-03T17:44:21.036Z,2.50
2024-02-03T17:49:26.695Z,1.70
2024-02-03T17:54:32.319Z,2.00
2024-02-03T17:59:43.058Z,3.90
2024-02-03T18:04:48.213Z,2.00
2024-02-03T18:09:53.480Z,3.50
2024-02-03T18:15:04.022Z,2.00
2024-02-03T18:20:16.779Z,2.33
2024-02-03T18:25:26.741Z,2.70
2024-02-03T18:30:35.540Z,2.03
2024-02-03T18:35:41.911Z,2.20
2024-02-03T18:40:47.127Z,1.87
2024-02-03T18:45:56.021Z,2.00
2024-02-03T18:51:01.442Z,1.40
2024-02-03T18:56:06.813Z,2.00
2024-02-03T19:01:15.028Z,1.93
2024-02-03T19:06:20.566Z,3.13
2024-02-03T19:11:32.225Z,2.30
2024-02-03T19:16:40.357Z,3.33
2024-02-03T19:21:45.663Z,4.43
2024-02-03T19:26:50.988Z,3.17
2024-02-03T19:32:01.135Z,2.13
2024-02-03T19:37:06.446Z,2.30
2024-02-03T19:42:11.781Z,2.70
2024-02-03T19:47:20.163Z,2.13
2024-02-03T19:52:27.417Z,2.50
2024-02-03T19:57:34.209Z,2.30
2024-02-03T20:02:42.477Z,2.53
2024-02-03T20:07:47.795Z,2.03
2024-02-03T20:12:53.164Z,2.20
2024-02-03T20:18:01.102Z,2.03
2024-02-03T20:23:06.941Z,2.60
2024-02-03T20:28:20.318Z,2.07
2024-02-03T20:33:28.616Z,2.30
2024-02-03T20:38:36.647Z,2.27
2024-02-03T20:43:45.626Z,2.67
2024-02-03T20:48:53.721Z,2.43
2024-02-03T20:53:59.000Z,2.53
2024-02-03T20:59:04.374Z,2.43
2024-02-03T21:04:14.694Z,3.67
2024-02-03T21:09:21.072Z,2.03
2024-02-03T21:14:26.529Z,5.60
2024-02-03T21:19:34.590Z,2.63
2024-02-03T21:24:42.156Z,2.07
2024-02-03T21:29:48.665Z,2.30
2024-02-03T21:34:57.262Z,2.07
2024-02-03T21:40:11.029Z,2.43
2024-02-03T21:45:16.564Z,2.77
2024-02-03T21:50:25.461Z,2.30
2024-02-03T21:55:31.279Z,2.23
2024-02-03T22:00:42.207Z,2.50
2024-02-03T22:05:51.154Z,2.50
2024-02-03T22:10:56.874Z,3.07
2024-02-03T22:16:02.210Z,2.47
2024-02-03T22:21:17.650Z,2.43
2024-02-03T22:26:25.861Z,2.63
2024-02-03T22:31:33.459Z,2.93
2024-02-03T22:36:43.578Z,3.17
2024-02-03T22:41:56.365Z,2.70
2024-02-03T22:47:03.056Z,3.00
2024-02-03T22:52:16.914Z,3.10
2024-02-03T22:57:22.205Z,4.77
2024-02-03T23:02:27.320Z,3.07
2024-02-03T23:07:40.039Z,5.13
2024-02-03T23:12:45.532Z,2.33
2024-02-03T23:17:52.422Z,2.67
2024-02-03T23:23:06.512Z,2.07
2024-02-03T23:28:14.277Z,3.43
2024-02-03T23:33:19.999Z,3.00
2024-02-03T23:38:27.777Z,2.20
2024-02-03T23:43:35.987Z,2.20
2024-02-03T23:48:46.009Z,2.13
2024-02-03T23:53:59.626Z,2.30
2024-02-03T23:59:05.248Z,2.77
